createdAt,value
2022-12-03T00:00:46.111Z,13.77
2022-12-03T00:03:13.186Z,12.80
2022-12-03T00:05:48.348Z,13.73
2022-12-03T00:08:16.016Z,14.07
2022-12-03T00:10:43.099Z,14.00
2022-12-03T00:13:10.116Z,13.27
2022-12-03T00:15:37.122Z,14.80
2022-12-03T00:18:04.212Z,13.53
2022-12-03T00:20:31.159Z,14.20
2022-12-03T00:22:58.106Z,14.13
2022-12-03T00:25:25.029Z,13.07
2022-12-03T00:27:51.905Z,13.13
2022-12-03T00:30:19.036Z,14.33
2022-12-03T00:32:45.946Z,14.30
2022-12-03T00:35:13.028Z,13.33
2022-12-03T00:37:39.996Z,12.93
2022-12-03T00:40:07.552Z,13.83
2022-12-03T00:42:34.478Z,14.27
2022-12-03T00:45:01.439Z,14.10
2022-12-03T00:47:30.366Z,14.23
2022-12-03T00:49:57.463Z,14.37
2022-12-03T00:52:24.417Z,14.67
2022-12-03T00:54:51.716Z,14.87
2022-12-03T00:57:19.031Z,12.47
2022-12-03T00:59:46.046Z,13.87
2022-12-03T01:02:13.131Z,14.80
2022-12-03T01:04:40.177Z,14.13
2022-12-03T01:07:07.159Z,13.87
2022-12-03T01:09:34.163Z,13.73
2022-12-03T01:12:01.185Z,14.87
2022-12-03T01:14:28.101Z,15.23
2022-12-03T01:16:55.078Z,14.23
2022-12-03T01:19:21.983Z,13.90
2022-12-03T01:21:50.566Z,13.87
2022-12-03T01:24:18.796Z,15.43
2022-12-03T01:26:45.686Z,14.30
2022-12-03T01:29:13.075Z,15.47
2022-12-03T01:31:58.810Z,14.93
2022-12-03T01:34:25.843Z,14.00
2022-12-03T01:36:52.902Z,14.70
2022-12-03T01:39:20.239Z,14.30
2022-12-03T01:41:49.339Z,14.17
2022-12-03T01:44:21.194Z,13.73
2022-12-03T01:46:51.010Z,13.83
2022-12-03T01:49:21.862Z,14.67
2022-12-03T01:51:51.327Z,13.77
2022-12-03T01:54:31.136Z,15.10
2022-12-03T01:56:58.628Z,14.27
2022-12-03T01:59:34.479Z,13.93
2022-12-03T02:02:33.839Z,15.65
2022-12-03T02:05:03.769Z,14.60
2022-12-03T02:07:33.913Z,13.57
2022-12-03T02:10:04.479Z,14.00
2022-12-03T02:12:38.780Z,14.63
2022-12-03T02:15:07.874Z,16.07
2022-12-03T02:17:35.027Z,13.13
2022-12-03T02:20:04.638Z,13.97
2022-12-03T02:22:47.031Z,13.37
2022-12-03T02:25:21.501Z,12.63
2022-12-03T02:27:49.409Z,15.03
2022-12-03T02:30:22.178Z,13.40
2022-12-03T02:32:49.982Z,13.80
2022-12-03T02:35:22.921Z,14.87
2022-12-03T02:37:53.250Z,14.47
2022-12-03T02:40:22.853Z,10.47
2022-12-03T02:42:53.584Z,12.47
2022-12-03T02:45:33.840Z,13.97
2022-12-03T02:48:00.715Z,10.00
2022-12-03T02:50:33.278Z,12.23
2022-12-03T02:53:03.253Z,13.60
2022-12-03T02:55:36.590Z,13.47
2022-12-03T02:58:05.340Z,14.53
2022-12-03T03:00:33.385Z,13.83
2022-12-03T03:03:02.694Z,14.57
2022-12-03T03:05:30.236Z,14.37
2022-12-03T03:07:59.377Z,12.40
2022-12-03T03:10:27.000Z,13.57
2022-12-03T03:12:55.624Z,12.73
2022-12-03T03:15:23.671Z,13.10
2022-12-03T03:17:51.227Z,13.70
2022-12-03T03:20:19.402Z,13.47
2022-12-03T03:22:46.422Z,12.40
2022-12-03T03:25:18.765Z,13.87
2022-12-03T03:27:46.031Z,14.33
2022-12-03T03:30:14.330Z,14.23
2022-12-03T03:32:42.796Z,12.80
2022-12-03T03:35:11.870Z,13.93
2022-12-03T03:37:39.357Z,14.37
2022-12-03T03:40:07.361Z,10.00
2022-12-03T03:42:35.066Z,12.00
2022-12-03T03:45:02.253Z,13.10
2022-12-03T03:47:30.087Z,13.83
2022-12-03T03:49:56.995Z,12.60
2022-12-03T03:52:24.324Z,14.23
2022-12-03T03:54:51.462Z,13.70
2022-12-03T03:57:18.624Z,13.67
2022-12-03T03:59:45.558Z,12.47
2022-12-03T04:02:24.865Z,14.60
2022-12-03T04:04:52.094Z,8.37
2022-12-03T04:07:19.207Z,13.13
2022-12-03T04:09:46.271Z,10.60
2022-12-03T04:12:31.963Z,15.10
2022-12-03T04:14:59.280Z,11.67
2022-12-03T04:17:26.174Z,12.17
2022-12-03T04:19:53.109Z,11.97
2022-12-03T04:22:41.145Z,14.13
2022-12-03T04:25:28.988Z,13.30
2022-12-03T04:28:14.655Z,11.47
2022-12-03T04:30:41.581Z,11.47
2022-12-03T04:33:27.422Z,12.77
2022-12-03T04:35:54.392Z,13.57
2022-12-03T04:38:21.360Z,14.37
2022-12-03T04:41:06.475Z,12.90
2022-12-03T04:43:34.910Z,13.40
2022-12-03T04:46:02.513Z,13.10
2022-12-03T04:48:30.015Z,12.50
2022-12-03T04:50:56.985Z,11.40
2022-12-03T04:53:23.873Z,11.77
2022-12-03T04:55:50.890Z,13.40
2022-12-03T04:58:17.757Z,13.20
2022-12-03T05:00:44.699Z,12.93
2022-12-03T05:03:11.643Z,12.80
2022-12-03T05:05:38.611Z,12.43
2022-12-03T05:08:05.848Z,11.83
2022-12-03T05:10:32.811Z,11.27
2022-12-03T05:12:59.716Z,11.13
2022-12-03T05:15:26.610Z,13.17
2022-12-03T05:17:53.466Z,11.10
2022-12-03T05:20:39.182Z,12.20
2022-12-03T05:23:06.136Z,11.73
2022-12-03T05:25:33.038Z,9.67
2022-12-03T05:27:59.941Z,12.10
2022-12-03T05:30:26.917Z,10.37
2022-12-03T05:32:54.043Z,7.30
2022-12-03T05:35:20.971Z,10.57
2022-12-03T05:37:47.861Z,10.57
2022-12-03T05:40:15.252Z,9.03
2022-12-03T05:42:53.995Z,10.90
2022-12-03T05:45:22.219Z,7.47
2022-12-03T05:47:49.510Z,7.20
2022-12-03T05:50:16.739Z,10.87
2022-12-03T05:52:43.936Z,8.83
2022-12-03T05:55:11.956Z,10.10
2022-12-03T05:57:39.592Z,7.87
2022-12-03T06:00:18.351Z,8.37
2022-12-03T06:02:45.539Z,8.67
2022-12-03T06:05:14.653Z,8.70
2022-12-03T06:07:42.253Z,8.17
2022-12-03T06:10:11.808Z,10.67
2022-12-03T06:12:39.443Z,9.37
2022-12-03T06:15:07.090Z,10.23
2022-12-03T06:17:33.954Z,9.03
2022-12-03T06:20:00.970Z,9.27
2022-12-03T06:22:27.951Z,9.23
2022-12-03T06:24:54.993Z,9.57
2022-12-03T06:27:22.208Z,10.67
2022-12-03T06:29:49.220Z,9.87
2022-12-03T06:32:16.227Z,10.30
2022-12-03T06:34:43.095Z,10.03
2022-12-03T06:37:10.017Z,11.53
2022-12-03T06:39:36.924Z,11.57
2022-12-03T06:42:03.931Z,9.93
2022-12-03T06:44:30.946Z,10.73
2022-12-03T06:46:57.944Z,10.13
2022-12-03T06:49:24.871Z,8.23
2022-12-03T06:51:51.774Z,10.57
2022-12-03T06:54:18.811Z,9.23
2022-12-03T06:56:46.280Z,10.67
2022-12-03T06:59:14.493Z,14.03
2022-12-03T07:01:41.536Z,10.13
2022-12-03T07:04:08.622Z,12.23
2022-12-03T07:06:35.524Z,9.20
2022-12-03T07:09:02.439Z,10.87
2022-12-03T07:11:32.247Z,11.00
2022-12-03T07:14:05.075Z,8.07
2022-12-03T07:16:32.376Z,10.43
2022-12-03T07:18:59.328Z,10.43
2022-12-03T07:21:26.266Z,11.67
2022-12-03T07:23:53.222Z,9.37
2022-12-03T07:26:20.179Z,8.97
2022-12-03T07:28:48.374Z,11.33
2022-12-03T07:31:15.733Z,10.70
2022-12-03T07:33:42.939Z,11.27
2022-12-03T07:36:10.241Z,11.20
2022-12-03T07:38:37.403Z,10.97
2022-12-03T07:41:04.292Z,7.80
2022-12-03T07:43:31.386Z,11.17
2022-12-03T07:45:58.247Z,12.90
2022-12-03T07:48:25.150Z,12.70
2022-12-03T07:50:52.070Z,11.10
2022-12-03T07:53:19.051Z,7.73
2022-12-03T07:55:46.006Z,10.67
2022-12-03T07:58:12.908Z,10.17
2022-12-03T08:00:39.918Z,12.27
2022-12-03T08:03:06.855Z,11.17
2022-12-03T08:05:33.919Z,11.93
2022-12-03T08:08:01.466Z,12.03
2022-12-03T08:10:28.583Z,12.80
2022-12-03T08:12:59.002Z,10.80
2022-12-03T08:15:32.241Z,11.93
2022-12-03T08:18:11.833Z,12.25
2022-12-03T08:20:40.967Z,11.23
2022-12-03T08:23:13.921Z,11.10
2022-12-03T08:25:41.214Z,12.13
2022-12-03T08:28:14.063Z,10.63
2022-12-03T08:30:43.362Z,11.50
2022-12-03T08:33:26.013Z,10.53
2022-12-03T08:35:53.128Z,11.57
2022-12-03T08:38:22.986Z,10.83
2022-12-03T08:40:52.701Z,11.97
2022-12-03T08:43:27.663Z,11.07
2022-12-03T08:45:56.871Z,7.67
2022-12-03T08:48:30.049Z,12.00
2022-12-03T08:51:20.397Z,12.50
2022-12-03T08:53:50.490Z,11.60
2022-12-03T08:56:25.759Z,10.30
2022-12-03T08:59:18.650Z,12.43
2022-12-03T09:01:47.411Z,10.83
2022-12-03T09:04:31.519Z,8.73
2022-12-03T09:06:58.749Z,11.37
2022-12-03T09:09:26.451Z,11.50
2022-12-03T09:11:54.062Z,9.83
2022-12-03T09:14:22.870Z,9.97
2022-12-03T09:16:52.125Z,11.47
2022-12-03T09:19:19.217Z,10.73
2022-12-03T09:21:46.394Z,10.57
2022-12-03T09:24:13.401Z,11.07
2022-12-03T09:26:40.408Z,10.33
2022-12-03T09:29:11.932Z,11.10
2022-12-03T09:31:40.088Z,9.60
2022-12-03T09:34:07.861Z,10.57
2022-12-03T09:36:36.929Z,10.77
2022-12-03T09:39:04.422Z,9.67
2022-12-03T09:41:31.566Z,10.67
2022-12-03T09:44:06.192Z,11.10
2022-12-03T09:46:37.473Z,10.43
2022-12-03T09:49:10.806Z,10.63
2022-12-03T09:51:41.005Z,10.70
2022-12-03T09:54:08.347Z,9.47
2022-12-03T09:56:38.079Z,8.90
2022-12-03T09:59:15.168Z,9.80
2022-12-03T10:01:42.670Z,9.77
2022-12-03T10:04:10.104Z,10.93
2022-12-03T10:06:41.062Z,9.97
2022-12-03T10:09:17.498Z,8.30
2022-12-03T10:11:44.759Z,10.10
2022-12-03T10:14:14.327Z,10.60
2022-12-03T10:16:41.689Z,11.50
2022-12-03T10:19:22.316Z,8.73
2022-12-03T10:21:49.347Z,11.10
2022-12-03T10:24:31.725Z,11.23
2022-12-03T10:27:01.448Z,10.53
2022-12-03T10:29:34.946Z,11.67
2022-12-03T10:32:07.960Z,11.00
2022-12-03T10:34:37.664Z,11.33
2022-12-03T10:37:34.087Z,11.90
2022-12-03T10:40:09.776Z,11.20
2022-12-03T10:42:41.341Z,10.63
2022-12-03T10:45:22.871Z,10.93
2022-12-03T10:48:27.574Z,8.47
2022-12-03T10:51:02.509Z,10.20
2022-12-03T10:53:35.729Z,8.83
2022-12-03T10:56:05.936Z,11.40
2022-12-03T10:58:38.067Z,10.73
2022-12-03T11:01:25.881Z,9.77
2022-12-03T11:03:55.939Z,10.23
2022-12-03T11:06:23.541Z,9.63
2022-12-03T11:08:58.383Z,9.37
2022-12-03T11:11:27.910Z,10.40
2022-12-03T11:13:57.100Z,10.87
2022-12-03T11:16:39.269Z,10.33
2022-12-03T11:19:45.866Z,8.50
2022-12-03T11:22:17.566Z,10.50
2022-12-03T11:24:44.444Z,10.73
2022-12-03T11:27:19.140Z,12.03
2022-12-03T11:29:58.710Z,11.77
2022-12-03T11:32:43.925Z,11.37
2022-12-03T11:35:37.821Z,11.33
2022-12-03T11:38:46.189Z,11.77
2022-12-03T11:41:36.096Z,10.10
2022-12-03T11:44:32.776Z,12.03
2022-12-03T11:47:00.687Z,12.43
2022-12-03T11:49:36.098Z,13.43
2022-12-03T11:52:19.313Z,12.23
2022-12-03T11:54:50.832Z,12.13
2022-12-03T11:57:30.687Z,11.57
2022-12-03T12:00:10.448Z,12.07
2022-12-03T12:02:42.201Z,11.73
2022-12-03T12:05:21.145Z,12.03
2022-12-03T12:07:49.087Z,12.87
2022-12-03T12:10:38.555Z,12.97
2022-12-03T12:13:05.840Z,12.67
2022-12-03T12:15:41.773Z,13.60
2022-12-03T12:18:36.803Z,13.63
2022-12-03T12:21:38.624Z,6.97
2022-12-03T12:24:51.549Z,11.67
2022-12-03T12:27:21.891Z,12.07
2022-12-03T12:29:55.160Z,11.70
2022-12-03T12:32:30.667Z,12.47
2022-12-03T12:35:13.756Z,13.17
2022-12-03T12:38:06.991Z,12.50
2022-12-03T12:40:36.567Z,12.27
2022-12-03T12:43:25.184Z,11.10
2022-12-03T12:46:13.508Z,12.47
2022-12-03T12:48:46.124Z,10.87
2022-12-03T12:51:17.015Z,9.40
2022-12-03T12:53:44.036Z,12.00
2022-12-03T12:56:26.875Z,13.17
2022-12-03T12:58:56.832Z,11.00
2022-12-03T13:01:29.966Z,12.80
2022-12-03T13:03:57.593Z,10.67
2022-12-03T13:06:30.311Z,11.40
2022-12-03T13:09:01.303Z,12.73
2022-12-03T13:11:42.370Z,10.70
2022-12-03T13:14:22.821Z,12.07
2022-12-03T13:16:52.188Z,12.03
2022-12-03T13:19:23.840Z,11.10
2022-12-03T13:21:53.659Z,8.57
2022-12-03T13:24:39.671Z,10.93
2022-12-03T13:27:19.677Z,10.83
2022-12-03T13:29:51.147Z,11.47
2022-12-03T13:32:23.450Z,12.60
2022-12-03T13:34:55.430Z,11.10
2022-12-03T13:37:25.307Z,11.43
2022-12-03T13:39:55.237Z,11.90
2022-12-03T13:42:43.323Z,11.47
2022-12-03T13:45:19.299Z,10.97
2022-12-03T13:47:48.022Z,11.52
2022-12-03T13:50:41.453Z,10.20
2022-12-03T13:53:11.415Z,11.77
2022-12-03T13:55:50.276Z,11.53
2022-12-03T13:58:17.521Z,12.13
2022-12-03T14:00:44.702Z,11.13
2022-12-03T14:03:11.871Z,12.97
2022-12-03T14:05:38.989Z,11.13
2022-12-03T14:08:06.332Z,9.60
2022-12-03T14:10:33.445Z,11.30
2022-12-03T14:13:00.602Z,9.10
2022-12-03T14:15:27.576Z,10.07
2022-12-03T14:17:54.573Z,12.30
2022-12-03T14:20:22.409Z,10.30
2022-12-03T14:23:04.508Z,9.40
2022-12-03T14:25:31.627Z,11.33
2022-12-03T14:27:58.555Z,10.63
2022-12-03T14:30:25.454Z,8.67
2022-12-03T14:32:52.546Z,11.13
2022-12-03T14:35:19.444Z,10.33
2022-12-03T14:37:46.496Z,11.63
2022-12-03T14:40:19.642Z,10.93
2022-12-03T14:42:48.477Z,11.53
2022-12-03T14:45:15.392Z,10.00
2022-12-03T14:47:42.600Z,10.33
2022-12-03T14:50:14.403Z,10.47
2022-12-03T14:52:41.696Z,8.70
2022-12-03T14:55:08.915Z,9.40
2022-12-03T14:57:37.510Z,10.90
2022-12-03T15:00:07.238Z,9.33
2022-12-03T15:02:34.327Z,10.37
2022-12-03T15:05:01.446Z,9.07
2022-12-03T15:07:32.134Z,9.53
2022-12-03T15:09:59.184Z,6.97
2022-12-03T15:12:26.355Z,9.97
2022-12-03T15:14:53.334Z,8.07
2022-12-03T15:17:29.470Z,10.27
2022-12-03T15:19:58.399Z,9.70
2022-12-03T15:22:25.344Z,9.47
2022-12-03T15:24:52.311Z,9.70
2022-12-03T15:27:19.233Z,8.47
2022-12-03T15:29:46.300Z,8.73
2022-12-03T15:32:13.598Z,10.43
2022-12-03T15:34:40.508Z,11.20
2022-12-03T15:37:09.418Z,10.33
2022-12-03T15:39:37.708Z,11.53
2022-12-03T15:42:04.624Z,10.90
2022-12-03T15:44:31.595Z,10.63
2022-12-03T15:46:58.570Z,8.87
2022-12-03T15:49:25.551Z,10.97
2022-12-03T15:51:52.476Z,9.37
2022-12-03T15:54:19.870Z,8.20
2022-12-03T15:56:47.310Z,9.13
2022-12-03T15:59:14.423Z,10.50
2022-12-03T16:01:41.568Z,8.67
2022-12-03T16:04:08.810Z,10.23
2022-12-03T16:06:36.095Z,10.57
2022-12-03T16:09:03.125Z,9.83
2022-12-03T16:11:30.219Z,10.50
2022-12-03T16:13:57.328Z,9.30
2022-12-03T16:16:24.352Z,11.13
2022-12-03T16:18:51.471Z,10.47
2022-12-03T16:21:23.369Z,10.97
2022-12-03T16:23:53.596Z,11.13
2022-12-03T16:26:20.462Z,11.80
2022-12-03T16:28:48.556Z,10.97
2022-12-03T16:31:15.476Z,10.07
2022-12-03T16:33:42.656Z,12.43
2022-12-03T16:36:09.879Z,11.50
2022-12-03T16:38:36.927Z,11.77
2022-12-03T16:41:03.887Z,12.43
2022-12-03T16:43:34.047Z,12.53
2022-12-03T16:46:20.872Z,8.97
2022-12-03T16:48:48.494Z,9.00
2022-12-03T16:51:16.202Z,12.53
2022-12-03T16:53:43.311Z,8.17
2022-12-03T16:56:10.347Z,10.70
2022-12-03T16:58:37.276Z,11.30
2022-12-03T17:01:04.654Z,10.23
2022-12-03T17:03:34.084Z,9.03
2022-12-03T17:06:01.906Z,10.33
2022-12-03T17:08:29.274Z,9.27
2022-12-03T17:10:56.755Z,8.40
2022-12-03T17:13:23.979Z,9.83
2022-12-03T17:15:51.318Z,8.67
2022-12-03T17:18:18.517Z,6.87
2022-12-03T17:20:45.711Z,7.67
2022-12-03T17:23:12.810Z,7.03
2022-12-03T17:25:39.708Z,8.77
2022-12-03T17:28:06.746Z,7.83
2022-12-03T17:30:33.845Z,8.20
2022-12-03T17:33:01.434Z,5.37
2022-12-03T17:35:28.711Z,8.20
2022-12-03T17:37:55.950Z,7.57
2022-12-03T17:40:23.243Z,6.67
2022-12-03T17:42:50.228Z,8.23
2022-12-03T17:45:17.230Z,6.03
2022-12-03T17:47:44.178Z,7.70
2022-12-03T17:50:11.244Z,7.07
2022-12-03T17:52:38.197Z,5.90
2022-12-03T17:55:19.806Z,7.57
2022-12-03T17:57:50.796Z,7.80
2022-12-03T18:00:18.574Z,6.53
2022-12-03T18:02:45.533Z,7.57
2022-12-03T18:05:13.551Z,5.63
2022-12-03T18:07:40.782Z,7.47
2022-12-03T18:10:08.168Z,8.47
2022-12-03T18:12:35.194Z,7.87
2022-12-03T18:15:02.156Z,7.97
2022-12-03T18:17:31.187Z,8.03
2022-12-03T18:19:58.374Z,7.47
2022-12-03T18:22:27.710Z,9.43
2022-12-03T18:24:55.448Z,8.20
2022-12-03T18:27:22.981Z,8.47
2022-12-03T18:29:50.038Z,8.10
2022-12-03T18:32:28.284Z,5.67
2022-12-03T18:34:55.628Z,7.70
2022-12-03T18:37:25.721Z,7.67
2022-12-03T18:39:53.305Z,6.17
2022-12-03T18:42:23.620Z,7.80
2022-12-03T18:44:52.537Z,8.10
2022-12-03T18:47:22.755Z,7.13
2022-12-03T18:49:50.262Z,8.57
2022-12-03T18:52:20.399Z,7.40
2022-12-03T18:54:48.168Z,8.57
2022-12-03T18:57:15.496Z,8.27
2022-12-03T18:59:42.822Z,8.93
2022-12-03T19:05:08.954Z,7.90
2022-12-03T19:07:36.075Z,8.57
2022-12-03T19:10:03.251Z,6.67
2022-12-03T19:12:31.938Z,9.63
2022-12-03T19:14:58.897Z,9.00
2022-12-03T19:17:27.279Z,5.97
2022-12-03T19:19:55.114Z,9.10
2022-12-03T19:22:22.493Z,7.07
2022-12-03T19:24:50.077Z,9.27
2022-12-03T19:27:17.419Z,9.03
2022-12-03T19:29:44.599Z,8.90
2022-12-03T19:32:11.635Z,9.37
2022-12-03T19:34:38.879Z,7.30
2022-12-03T19:37:05.851Z,8.43
2022-12-03T19:39:33.342Z,9.80
2022-12-03T19:42:00.282Z,9.17
2022-12-03T19:44:27.328Z,8.97
2022-12-03T19:46:54.487Z,7.93
2022-12-03T19:49:21.611Z,9.30
2022-12-03T19:51:48.861Z,9.73
2022-12-03T19:54:16.698Z,7.27
2022-12-03T19:56:44.348Z,9.67
2022-12-03T19:59:12.544Z,9.63
2022-12-03T20:01:40.983Z,10.00
2022-12-03T20:04:08.258Z,9.77
2022-12-03T20:06:39.885Z,9.27
2022-12-03T20:09:11.480Z,8.67
2022-12-03T20:11:40.078Z,9.27
2022-12-03T20:14:10.485Z,8.07
2022-12-03T20:16:37.578Z,10.03
2022-12-03T20:19:07.519Z,10.20
2022-12-03T20:21:36.697Z,8.33
2022-12-03T20:24:04.780Z,9.90
2022-12-03T20:26:32.088Z,8.97
2022-12-03T20:28:59.769Z,9.60
2022-12-03T20:31:30.430Z,9.50
2022-12-03T20:34:00.755Z,8.53
2022-12-03T20:36:29.653Z,9.40
2022-12-03T20:38:58.852Z,8.13
2022-12-03T20:41:26.045Z,8.50
2022-12-03T20:43:54.140Z,9.30
2022-12-03T20:46:29.383Z,9.77
2022-12-03T20:48:57.037Z,10.07
2022-12-03T20:51:27.576Z,7.27
2022-12-03T20:53:56.139Z,8.57
2022-12-03T20:56:26.418Z,9.77
2022-12-03T20:58:53.855Z,7.87
2022-12-03T21:01:22.221Z,8.20
2022-12-03T21:03:50.756Z,8.87
2022-12-03T21:06:18.513Z,9.83
2022-12-03T21:08:45.854Z,9.73
2022-12-03T21:11:16.463Z,9.97
2022-12-03T21:13:44.062Z,6.37
2022-12-03T21:16:17.780Z,7.63
2022-12-03T21:18:44.955Z,8.60
2022-12-03T21:21:13.846Z,9.47
2022-12-03T21:23:41.625Z,9.40
2022-12-03T21:26:10.179Z,9.17
2022-12-03T21:28:38.826Z,9.17
2022-12-03T21:31:08.770Z,9.13
2022-12-03T21:33:36.933Z,8.77
2022-12-03T21:36:05.007Z,10.17
2022-12-03T21:38:33.202Z,10.10
2022-12-03T21:41:01.146Z,9.73
2022-12-03T21:43:28.510Z,9.10
2022-12-03T21:45:55.732Z,8.93
2022-12-03T21:48:22.923Z,7.73
2022-12-03T21:51:16.800Z,9.77
2022-12-03T21:53:43.848Z,9.03
2022-12-03T21:56:13.742Z,9.80
2022-12-03T21:58:41.053Z,10.37
2022-12-03T22:01:16.588Z,10.10
2022-12-03T22:03:44.044Z,9.90
2022-12-03T22:06:11.766Z,10.53
2022-12-03T22:08:39.217Z,10.57
2022-12-03T22:11:09.196Z,10.60
2022-12-03T22:13:38.424Z,11.07
2022-12-03T22:16:11.520Z,9.97
2022-12-03T22:18:39.297Z,9.63
2022-12-03T22:21:12.727Z,10.07
2022-12-03T22:23:40.778Z,8.67
2022-12-03T22:26:10.944Z,8.67
2022-12-03T22:28:37.936Z,8.80
2022-12-03T22:31:09.323Z,9.73
2022-12-03T22:33:37.141Z,7.00
2022-12-03T22:36:07.008Z,8.70
2022-12-03T22:38:34.417Z,10.57
2022-12-03T22:41:07.956Z,10.67
2022-12-03T22:43:38.954Z,10.00
2022-12-03T22:46:10.517Z,9.30
2022-12-03T22:48:37.843Z,9.27
2022-12-03T22:51:11.957Z,9.27
2022-12-03T22:53:38.939Z,9.60
2022-12-03T22:56:06.199Z,9.70
2022-12-03T22:58:33.393Z,9.47
2022-12-03T23:01:03.078Z,7.73
2022-12-03T23:03:30.542Z,10.33
2022-12-03T23:05:57.551Z,9.67
2022-12-03T23:08:24.526Z,8.70
2022-12-03T23:10:52.884Z,10.70
2022-12-03T23:13:20.971Z,10.13
2022-12-03T23:15:50.982Z,10.33
2022-12-03T23:18:19.416Z,9.70
2022-12-03T23:20:49.588Z,9.73
2022-12-03T23:23:17.872Z,8.30
2022-12-03T23:25:45.465Z,8.73
2022-12-03T23:28:12.655Z,10.30
2022-12-03T23:30:39.824Z,8.50
2022-12-03T23:33:06.987Z,9.37
2022-12-03T23:35:33.961Z,10.10
2022-12-03T23:38:01.037Z,10.43
2022-12-03T23:40:27.961Z,8.83
2022-12-03T23:42:55.172Z,8.77
2022-12-03T23:45:22.337Z,10.67
2022-12-03T23:47:52.361Z,10.13
2022-12-03T23:50:21.972Z,10.40
2022-12-03T23:52:49.096Z,10.13
2022-12-03T23:55:16.176Z,11.47
2022-12-03T23:57:43.240Z,11.17
